Time;durP1;ratioP1;P1;durP2;ratioP2;P2;SDS_P1;SDS_P2;PMS_P1;PMS_P2;Temp;Humidity;BMP_temperature;BMP_pressure;BME280_temperature;BME280_humidity;BME280_pressure;Samples;Min_cycle;Max_cycle;Signal;HPM_P1;HPM_P2
2021/10/16 00:02:21;;;;;;;6.30;2.10;;;4.60;99.90;;;;;;5049965;28;20028;-78
2021/10/16 00:04:47;;;;;;;4.55;0.98;;;4.60;99.90;;;;;;5045950;28;20045;-77
2021/10/16 00:07:12;;;;;;;10.02;2.20;;;4.60;99.90;;;;;;5050651;28;20064;-78
2021/10/16 00:09:38;;;;;;;6.95;2.00;;;4.50;99.90;;;;;;5049670;28;20544;-78
2021/10/16 00:12:03;;;;;;;11.13;1.20;;;4.50;99.90;;;;;;5050546;28;20385;-78
2021/10/16 00:14:29;;;;;;;4.22;0.93;;;4.50;99.90;;;;;;5049464;28;20435;-78
2021/10/16 00:16:55;;;;;;;4.25;1.02;;;4.40;99.90;;;;;;5049287;28;20057;-78
2021/10/16 00:19:20;;;;;;;9.13;2.15;;;4.40;99.90;;;;;;5050628;28;20186;-77
2021/10/16 00:21:46;;;;;;;7.18;2.17;;;4.50;99.90;;;;;;5047873;28;20079;-78
2021/10/16 00:24:12;;;;;;;11.40;3.55;;;4.50;99.90;;;;;;5043851;28;20068;-78
2021/10/16 00:26:37;;;;;;;11.05;3.08;;;4.50;99.90;;;;;;5061620;28;20463;-78
2021/10/16 00:29:03;;;;;;;16.42;3.80;;;4.50;99.90;;;;;;5049060;28;20025;-78
2021/10/16 00:31:28;;;;;;;13.10;4.60;;;4.50;99.90;;;;;;5048771;28;20026;-78
2021/10/16 00:33:54;;;;;;;11.82;4.93;;;4.50;99.90;;;;;;5053653;28;20029;-78
2021/10/16 00:36:20;;;;;;;12.40;5.63;;;4.50;99.90;;;;;;5053558;28;20029;-78
2021/10/16 00:38:45;;;;;;;9.32;4.25;;;4.50;99.90;;;;;;5053388;28;20048;-79
2021/10/16 00:41:12;;;;;;;13.13;3.65;;;4.50;99.90;;;;;;5054888;28;20021;-78
2021/10/16 00:43:39;;;;;;;10.77;4.00;;;4.50;99.90;;;;;;5053473;28;20037;-78
2021/10/16 00:46:04;;;;;;;13.65;4.10;;;4.50;99.90;;;;;;5054625;28;20024;-79
2021/10/16 00:48:30;;;;;;;10.07;4.68;;;4.40;99.90;;;;;;5053284;28;20484;-78
2021/10/16 00:50:55;;;;;;;19.75;4.85;;;4.40;99.90;;;;;;5053099;28;20096;-77
2021/10/16 00:53:22;;;;;;;19.88;5.35;;;4.40;99.90;;;;;;5052379;28;20102;-78
2021/10/16 00:55:50;;;;;;;13.07;4.57;;;4.40;99.90;;;;;;5053594;28;20032;-78
2021/10/16 00:58:16;;;;;;;12.98;4.85;;;4.40;99.90;;;;;;5052984;28;20447;-78
2021/10/16 01:00:42;;;;;;;8.32;4.32;;;4.30;99.90;;;;;;5054965;28;20033;-77
2021/10/16 01:03:07;;;;;;;19.27;4.07;;;4.30;99.90;;;;;;5055552;28;20029;-78
2021/10/16 01:05:34;;;;;;;8.52;3.55;;;4.30;99.90;;;;;;5051614;28;20052;-78
2021/10/16 01:08:04;;;;;;;10.85;4.05;;;4.30;99.90;;;;;;5053420;28;20025;-78
2021/10/16 01:10:29;;;;;;;11.07;4.18;;;4.30;99.90;;;;;;5053119;28;20056;-78
2021/10/16 01:12:58;;;;;;;10.57;3.72;;;4.30;99.90;;;;;;5053355;28;20065;-78
2021/10/16 01:15:25;;;;;;;11.63;4.07;;;4.30;99.90;;;;;;5053886;28;20111;-78
2021/10/16 01:17:52;;;;;;;10.75;4.10;;;4.30;99.90;;;;;;5038408;28;20096;-78
2021/10/16 01:20:21;;;;;;;9.57;3.08;;;4.30;99.90;;;;;;5053679;28;20416;-78
2021/10/16 01:22:49;;;;;;;9.55;3.42;;;4.40;99.90;;;;;;5050394;28;20646;-78
2021/10/16 01:25:23;;;;;;;8.00;3.25;;;4.40;99.90;;;;;;5040967;28;20029;-78
2021/10/16 01:27:49;;;;;;;4.18;2.72;;;4.40;99.90;;;;;;5049819;28;20025;-78
2021/10/16 01:30:21;;;;;;;6.32;2.28;;;4.40;99.90;;;;;;5053312;28;20039;-78
2021/10/16 01:32:47;;;;;;;9.27;2.40;;;4.50;99.90;;;;;;5051661;28;20350;-78
2021/10/16 01:35:14;;;;;;;4.90;2.35;;;4.50;99.90;;;;;;5051392;28;20025;-78
2021/10/16 01:37:48;;;;;;;9.73;3.63;;;4.50;99.90;;;;;;5042831;28;20053;-78
2021/10/16 01:40:14;;;;;;;9.38;3.55;;;4.60;99.90;;;;;;5049659;28;20036;-78
2021/10/16 01:42:43;;;;;;;11.57;3.88;;;4.60;99.90;;;;;;5051575;28;20037;-78
2021/10/16 01:45:14;;;;;;;7.65;3.90;;;4.70;99.90;;;;;;5050874;28;20489;-78
2021/10/16 01:47:47;;;;;;;8.52;3.47;;;4.80;99.90;;;;;;5047450;28;20086;-78
2021/10/16 01:50:13;;;;;;;8.30;3.30;;;4.80;99.90;;;;;;5053358;28;20033;-78
2021/10/16 01:52:39;;;;;;;8.68;3.55;;;4.80;99.90;;;;;;5052400;28;20093;-78
2021/10/16 01:55:05;;;;;;;14.60;4.90;;;4.90;99.90;;;;;;5052498;28;20096;-78
2021/10/16 01:57:30;;;;;;;14.93;5.25;;;4.90;99.90;;;;;;5051482;28;20025;-78
2021/10/16 01:59:55;;;;;;;15.95;5.15;;;5.00;99.90;;;;;;5050604;28;20137;-78
2021/10/16 02:02:22;;;;;;;15.95;5.25;;;5.00;99.90;;;;;;5051949;28;20043;-78
2021/10/16 02:04:47;;;;;;;14.02;4.68;;;5.10;99.90;;;;;;5051878;28;20079;-78
2021/10/16 02:07:13;;;;;;;14.90;5.88;;;5.10;99.90;;;;;;5048117;28;20079;-78
2021/10/16 02:09:38;;;;;;;10.00;4.72;;;5.20;99.90;;;;;;5051035;28;20512;-78
2021/10/16 02:12:04;;;;;;;11.57;5.13;;;5.20;99.90;;;;;;5052416;28;20029;-78
2021/10/16 02:14:29;;;;;;;11.07;4.78;;;5.20;99.90;;;;;;5050423;28;20051;-78
2021/10/16 02:16:55;;;;;;;17.65;5.15;;;5.20;99.90;;;;;;5047100;28;20021;-78
2021/10/16 02:19:20;;;;;;;10.93;4.60;;;5.30;99.90;;;;;;5052115;28;20067;-79
2021/10/16 02:21:46;;;;;;;12.50;5.00;;;5.30;99.90;;;;;;5051842;28;20599;-78
2021/10/16 02:24:12;;;;;;;15.02;4.80;;;5.40;99.90;;;;;;5051582;28;20040;-78
2021/10/16 02:26:37;;;;;;;14.77;5.80;;;5.40;99.90;;;;;;5055258;28;20500;-78
2021/10/16 02:29:03;;;;;;;15.25;5.72;;;5.50;99.90;;;;;;5052103;28;20029;-78
2021/10/16 02:31:29;;;;;;;14.98;5.15;;;5.60;99.90;;;;;;5051378;28;20118;-78
2021/10/16 02:33:54;;;;;;;10.68;5.75;;;5.70;99.90;;;;;;5051817;28;20107;-78
2021/10/16 02:36:20;;;;;;;13.52;5.13;;;5.80;99.90;;;;;;5051380;28;20496;-78
2021/10/16 02:38:46;;;;;;;18.63;6.13;;;5.80;99.90;;;;;;5051589;28;20040;-78
2021/10/16 02:41:11;;;;;;;14.82;5.15;;;5.90;99.90;;;;;;5052095;28;20029;-78
2021/10/16 02:43:37;;;;;;;13.60;5.70;;;5.90;99.90;;;;;;5052146;28;20033;-78
2021/10/16 02:46:03;;;;;;;16.65;4.82;;;6.00;99.90;;;;;;5067606;28;20032;-78
2021/10/16 02:48:28;;;;;;;18.25;5.43;;;6.00;99.90;;;;;;5060391;28;20081;-78
2021/10/16 02:50:54;;;;;;;9.70;5.03;;;6.10;99.90;;;;;;5049786;28;20031;-78
2021/10/16 02:53:19;;;;;;;16.35;5.20;;;6.10;99.90;;;;;;5049927;28;20032;-78
2021/10/16 02:55:45;;;;;;;17.17;5.65;;;6.10;99.90;;;;;;5051556;28;20432;-79
2021/10/16 02:58:10;;;;;;;13.23;5.38;;;6.20;99.90;;;;;;5051623;28;20045;-78
2021/10/16 03:00:36;;;;;;;17.85;4.93;;;6.20;99.90;;;;;;5050759;28;20158;-78
2021/10/16 03:03:01;;;;;;;14.18;5.50;;;6.30;99.90;;;;;;5050838;28;20060;-78
2021/10/16 03:05:27;;;;;;;11.52;4.40;;;6.30;99.90;;;;;;5049597;28;20128;-78
2021/10/16 03:07:52;;;;;;;13.48;4.97;;;6.40;99.90;;;;;;5049549;28;20033;-78
2021/10/16 03:10:18;;;;;;;13.27;5.60;;;6.40;99.90;;;;;;5050136;28;20028;-78
2021/10/16 03:12:43;;;;;;;18.15;5.57;;;6.40;99.90;;;;;;5046107;28;20465;-78
2021/10/16 03:15:09;;;;;;;12.48;5.88;;;6.40;99.90;;;;;;5054758;28;20419;-78
2021/10/16 03:17:34;;;;;;;14.23;5.47;;;6.40;99.90;;;;;;5059942;28;20032;-78
2021/10/16 03:20:01;;;;;;;16.40;5.30;;;6.50;99.90;;;;;;5050499;28;20063;-78
2021/10/16 03:22:27;;;;;;;14.85;4.50;;;6.50;99.90;;;;;;5051779;28;20025;-78
2021/10/16 03:24:53;;;;;;;11.93;5.88;;;6.50;99.90;;;;;;5051290;28;20079;-79
2021/10/16 03:27:18;;;;;;;11.27;4.80;;;6.60;99.90;;;;;;5051881;28;20025;-78
2021/10/16 03:29:44;;;;;;;18.80;5.80;;;6.60;99.90;;;;;;5045716;28;20481;-78
2021/10/16 03:32:09;;;;;;;15.95;4.88;;;6.60;99.90;;;;;;5050776;28;20029;-78
2021/10/16 03:34:35;;;;;;;10.50;4.13;;;6.60;99.90;;;;;;5046783;28;20529;-78
2021/10/16 03:37:00;;;;;;;13.27;4.28;;;6.60;99.90;;;;;;5049600;28;20025;-78
2021/10/16 03:39:26;;;;;;;9.90;4.57;;;6.60;99.90;;;;;;5049104;28;20456;-79
2021/10/16 03:41:52;;;;;;;15.10;5.35;;;6.60;99.90;;;;;;5051228;28;20503;-78
2021/10/16 03:44:17;;;;;;;14.70;5.03;;;6.70;99.90;;;;;;5051624;28;20044;-78
2021/10/16 03:46:43;;;;;;;14.30;5.13;;;6.70;99.90;;;;;;5048057;28;20025;-78
2021/10/16 03:49:08;;;;;;;16.27;5.20;;;6.70;99.90;;;;;;5035654;28;20063;-78
2021/10/16 03:51:34;;;;;;;11.70;4.38;;;6.70;99.90;;;;;;5049236;28;20036;-78
2021/10/16 03:54:01;;;;;;;17.80;5.45;;;6.70;99.90;;;;;;5049176;28;20033;-78
2021/10/16 03:56:26;;;;;;;15.50;4.88;;;6.70;99.90;;;;;;5048712;28;20550;-78
2021/10/16 03:58:52;;;;;;;12.77;4.90;;;6.80;99.90;;;;;;5047573;28;20060;-79
2021/10/16 04:01:18;;;;;;;10.95;4.65;;;6.80;99.90;;;;;;5044810;28;20025;-78
2021/10/16 04:03:43;;;;;;;12.57;4.50;;;6.80;99.90;;;;;;5052458;28;20116;-79
2021/10/16 04:06:09;;;;;;;11.43;5.28;;;6.80;99.90;;;;;;5053884;28;20091;-78
2021/10/16 04:08:34;;;;;;;12.77;5.05;;;6.80;99.90;;;;;;5045932;28;20103;-78
2021/10/16 04:11:00;;;;;;;11.75;4.70;;;6.90;99.90;;;;;;5053151;28;20044;-79
2021/10/16 04:13:25;;;;;;;12.55;4.47;;;6.90;99.90;;;;;;5047535;28;20386;-79
2021/10/16 04:15:51;;;;;;;11.77;4.80;;;6.90;99.90;;;;;;5055201;28;20021;-79
2021/10/16 04:18:17;;;;;;;15.65;5.13;;;6.90;99.90;;;;;;5053625;28;20029;-79
2021/10/16 04:20:42;;;;;;;13.98;5.13;;;7.00;99.90;;;;;;5052385;28;20037;-79
2021/10/16 04:23:08;;;;;;;12.40;5.25;;;7.00;99.90;;;;;;5055420;28;20100;-79
2021/10/16 04:25:33;;;;;;;12.57;4.95;;;7.00;99.90;;;;;;5060796;28;20097;-79
2021/10/16 04:27:59;;;;;;;14.98;5.57;;;7.00;99.90;;;;;;5055141;28;20025;-78
2021/10/16 04:30:24;;;;;;;13.57;6.88;;;7.00;99.90;;;;;;5052572;28;20040;-79
2021/10/16 04:32:51;;;;;;;15.25;5.55;;;7.00;99.90;;;;;;5047092;28;20028;-78
2021/10/16 04:35:17;;;;;;;15.70;6.00;;;7.00;99.90;;;;;;5049900;28;20035;-78
2021/10/16 04:37:43;;;;;;;14.73;4.93;;;7.00;99.90;;;;;;5054200;28;20548;-78
2021/10/16 04:40:27;;;;;;;10.50;4.95;;;7.00;99.90;;;;;;5054154;28;20140;-78
2021/10/16 04:42:53;;;;;;;12.45;5.35;;;7.00;99.90;;;;;;5049258;28;20021;-78
2021/10/16 04:45:19;;;;;;;15.82;4.88;;;7.10;99.90;;;;;;5046347;28;20060;-79
2021/10/16 04:47:45;;;;;;;14.10;4.75;;;7.10;99.90;;;;;;5053065;28;20068;-78
2021/10/16 04:50:11;;;;;;;17.42;5.18;;;7.00;99.90;;;;;;5051957;28;20024;-79
2021/10/16 04:52:37;;;;;;;15.52;4.75;;;7.10;99.90;;;;;;5053985;28;20029;-79
2021/10/16 04:55:04;;;;;;;15.77;5.18;;;7.10;99.90;;;;;;5049239;28;20032;-79
2021/10/16 04:57:30;;;;;;;16.42;4.85;;;7.10;99.90;;;;;;5044169;28;20493;-78
2021/10/16 04:59:56;;;;;;;11.73;4.57;;;7.20;99.90;;;;;;5051301;28;20033;-78
2021/10/16 05:02:24;;;;;;;9.63;4.47;;;7.20;99.90;;;;;;5050545;28;20044;-79
2021/10/16 05:04:50;;;;;;;13.07;5.35;;;7.20;99.90;;;;;;5064849;28;20041;-79
2021/10/16 05:07:16;;;;;;;17.42;4.82;;;7.20;99.90;;;;;;5053130;28;20025;-79
2021/10/16 05:09:42;;;;;;;10.32;4.80;;;7.20;99.90;;;;;;5073062;28;20042;-79
2021/10/16 05:12:07;;;;;;;21.85;5.55;;;7.20;99.90;;;;;;5053325;28;20458;-78
2021/10/16 05:14:33;;;;;;;14.13;5.00;;;7.30;99.90;;;;;;5048956;28;20541;-79
2021/10/16 05:16:58;;;;;;;14.63;5.10;;;7.30;99.90;;;;;;5053075;28;20079;-78
2021/10/16 05:19:24;;;;;;;13.23;5.60;;;7.30;99.90;;;;;;5051761;28;20485;-78
2021/10/16 05:21:49;;;;;;;13.13;4.53;;;7.30;99.90;;;;;;5052525;28;20035;-78
2021/10/16 05:24:15;;;;;;;14.27;6.00;;;7.30;99.90;;;;;;5045825;28;20428;-78
2021/10/16 05:26:40;;;;;;;15.57;5.55;;;7.30;99.90;;;;;;5044690;28;20025;-79
2021/10/16 05:29:06;;;;;;;16.00;5.70;;;7.30;99.90;;;;;;5047389;28;20036;-77
2021/10/16 05:31:32;;;;;;;14.88;5.47;;;7.30;99.90;;;;;;5055904;28;20518;-78
2021/10/16 05:33:57;;;;;;;15.90;5.88;;;7.30;99.90;;;;;;5053390;28;20032;-79
2021/10/16 05:36:23;;;;;;;11.88;5.63;;;7.30;99.90;;;;;;5051209;28;20025;-79
2021/10/16 05:38:48;;;;;;;12.55;6.43;;;7.30;99.90;;;;;;5053314;28;20029;-79
2021/10/16 05:41:14;;;;;;;13.93;4.63;;;7.40;99.90;;;;;;5052645;28;20036;-78
2021/10/16 05:43:40;;;;;;;14.43;4.72;;;7.40;99.90;;;;;;5051655;28;20036;-77
2021/10/16 05:46:06;;;;;;;14.77;4.78;;;7.40;99.90;;;;;;5051534;28;20036;-77
2021/10/16 05:48:31;;;;;;;15.30;5.43;;;7.40;99.90;;;;;;5034040;28;20556;-79
2021/10/16 05:50:58;;;;;;;12.82;5.10;;;7.40;99.90;;;;;;5051188;28;20539;-78
2021/10/16 05:53:23;;;;;;;14.60;6.70;;;7.40;99.90;;;;;;5047913;28;20036;-79
2021/10/16 05:55:49;;;;;;;10.52;5.20;;;7.40;99.90;;;;;;5055651;28;20064;-79
2021/10/16 05:58:14;;;;;;;11.68;5.28;;;7.40;99.90;;;;;;5054772;28;20083;-79
2021/10/16 06:00:40;;;;;;;14.95;5.65;;;7.40;99.90;;;;;;5054171;28;20032;-79
2021/10/16 06:03:05;;;;;;;10.93;5.00;;;7.40;99.90;;;;;;5054021;28;20029;-78
2021/10/16 06:05:31;;;;;;;12.45;4.60;;;7.40;99.90;;;;;;5050667;28;20057;-79
2021/10/16 06:07:56;;;;;;;18.52;4.82;;;7.50;99.90;;;;;;5051170;28;20086;-79
2021/10/16 06:10:22;;;;;;;10.95;4.93;;;7.50;99.90;;;;;;5053280;28;20112;-78
2021/10/16 06:12:47;;;;;;;19.83;6.03;;;7.50;99.90;;;;;;5051495;28;20029;-78
2021/10/16 06:15:13;;;;;;;13.38;5.45;;;7.50;99.90;;;;;;5051219;28;20472;-78
2021/10/16 06:17:39;;;;;;;19.15;5.53;;;7.50;99.90;;;;;;5050340;28;20388;-78
2021/10/16 06:20:05;;;;;;;11.95;4.20;;;7.60;99.90;;;;;;5051806;28;20623;-78
2021/10/16 06:22:30;;;;;;;8.20;4.70;;;7.60;99.90;;;;;;5051984;28;20104;-78
2021/10/16 06:24:56;;;;;;;9.90;4.78;;;7.60;99.90;;;;;;5052851;28;20106;-78
2021/10/16 06:27:23;;;;;;;11.18;4.47;;;7.60;99.90;;;;;;5053279;28;20071;-78
2021/10/16 06:29:49;;;;;;;14.52;5.40;;;7.70;99.90;;;;;;5050122;28;20049;-80
2021/10/16 06:32:15;;;;;;;12.10;3.85;;;7.70;99.90;;;;;;5054055;28;20033;-80
2021/10/16 06:34:41;;;;;;;11.18;3.40;;;7.70;99.90;;;;;;5050591;28;20043;-80
2021/10/16 06:37:06;;;;;;;12.95;4.22;;;7.80;99.90;;;;;;5050301;28;20057;-79
2021/10/16 06:39:32;;;;;;;11.27;3.38;;;7.80;99.90;;;;;;5049348;28;20037;-79
2021/10/16 06:41:57;;;;;;;9.93;3.80;;;7.80;99.90;;;;;;5049926;28;20035;-79
2021/10/16 06:44:23;;;;;;;11.85;4.03;;;7.80;99.90;;;;;;5048384;28;20041;-79
2021/10/16 06:46:48;;;;;;;14.38;4.25;;;7.80;99.90;;;;;;5046396;28;20024;-79
2021/10/16 06:49:14;;;;;;;11.82;3.67;;;7.90;99.90;;;;;;5050628;28;20504;-78
2021/10/16 06:51:43;;;;;;;13.10;4.55;;;7.90;99.90;;;;;;5040848;28;20025;-79
2021/10/16 06:54:10;;;;;;;11.55;3.25;;;7.90;99.90;;;;;;5042253;28;20063;-78
2021/10/16 06:56:36;;;;;;;14.30;3.75;;;8.00;99.90;;;;;;5046534;28;20100;-78
2021/10/16 06:59:02;;;;;;;11.38;3.10;;;8.00;99.90;;;;;;5046518;28;20045;-78
2021/10/16 07:01:27;;;;;;;8.27;2.92;;;8.00;99.90;;;;;;5050335;28;20040;-78
2021/10/16 07:03:53;;;;;;;7.72;3.83;;;8.10;99.90;;;;;;5049106;28;20071;-79
2021/10/16 07:06:18;;;;;;;10.07;2.75;;;8.10;99.90;;;;;;5040140;28;20053;-78
2021/10/16 07:08:44;;;;;;;11.85;2.47;;;8.20;99.90;;;;;;5047832;28;20051;-78
2021/10/16 07:11:10;;;;;;;8.77;2.20;;;8.20;99.90;;;;;;5051334;28;20029;-79
2021/10/16 07:13:35;;;;;;;10.48;2.70;;;8.30;99.90;;;;;;5050466;28;20029;-79
2021/10/16 07:16:01;;;;;;;11.65;2.47;;;8.30;99.90;;;;;;5047443;28;20033;-80
2021/10/16 07:18:26;;;;;;;9.93;2.65;;;8.40;99.90;;;;;;5046965;28;20029;-80
2021/10/16 07:20:52;;;;;;;14.68;2.80;;;8.40;99.90;;;;;;5051283;28;20032;-80
2021/10/16 07:23:24;;;;;;;11.40;3.20;;;8.50;99.90;;;;;;5051914;28;20543;-79
2021/10/16 07:25:50;;;;;;;15.50;2.90;;;8.50;99.90;;;;;;5049555;28;20025;-79
2021/10/16 07:28:15;;;;;;;19.70;3.30;;;8.60;99.90;;;;;;5047968;28;20048;-80
2021/10/16 07:30:41;;;;;;;11.30;2.80;;;8.60;99.90;;;;;;5042726;28;20125;-80
2021/10/16 07:33:06;;;;;;;10.43;2.60;;;8.60;99.90;;;;;;5050714;28;20057;-78
2021/10/16 07:35:32;;;;;;;12.55;3.28;;;8.70;99.90;;;;;;5050679;28;20057;-78
2021/10/16 07:37:58;;;;;;;10.85;2.35;;;8.80;99.90;;;;;;5050702;28;20033;-77
2021/10/16 07:40:23;;;;;;;12.82;2.65;;;8.80;99.90;;;;;;5051940;28;20416;-79
2021/10/16 07:42:49;;;;;;;12.85;2.50;;;8.90;99.90;;;;;;5066000;28;20060;-77
2021/10/16 07:45:14;;;;;;;11.85;2.78;;;8.90;99.90;;;;;;5048787;28;20025;-78
2021/10/16 07:47:40;;;;;;;13.07;3.40;;;9.00;99.90;;;;;;5051853;28;20431;-77
2021/10/16 07:50:06;;;;;;;13.45;3.40;;;9.00;99.90;;;;;;5046892;28;20029;-78
2021/10/16 07:52:32;;;;;;;10.88;2.70;;;9.10;99.90;;;;;;5049660;28;20024;-79
2021/10/16 07:54:58;;;;;;;13.18;2.92;;;9.20;99.90;;;;;;5050789;28;20032;-78
2021/10/16 07:57:23;;;;;;;12.98;2.70;;;9.20;99.90;;;;;;5050389;28;20025;-78
2021/10/16 07:59:49;;;;;;;10.55;2.55;;;9.30;99.90;;;;;;5051191;28;20029;-78
2021/10/16 08:02:14;;;;;;;10.90;3.13;;;9.30;99.90;;;;;;5048438;28;20384;-78
2021/10/16 08:04:40;;;;;;;12.27;2.25;;;9.40;99.90;;;;;;5050315;28;20049;-79
2021/10/16 08:07:05;;;;;;;9.05;2.78;;;9.40;99.90;;;;;;5050457;28;20038;-78
2021/10/16 08:09:31;;;;;;;15.20;2.85;;;9.50;99.90;;;;;;5050502;28;20029;-78
2021/10/16 08:11:56;;;;;;;12.98;2.53;;;9.60;99.90;;;;;;5050643;28;20358;-79
2021/10/16 08:14:22;;;;;;;12.25;2.85;;;9.60;99.90;;;;;;5049879;28;20488;-79
2021/10/16 08:16:48;;;;;;;14.02;3.35;;;9.70;99.90;;;;;;5048569;28;20044;-79
2021/10/16 08:19:14;;;;;;;9.55;2.50;;;9.80;99.90;;;;;;5047961;28;20036;-78
2021/10/16 08:21:39;;;;;;;11.80;2.75;;;9.80;99.90;;;;;;5048515;28;20336;-78
2021/10/16 08:24:05;;;;;;;11.48;2.22;;;9.90;99.90;;;;;;5051528;28;20389;-78
2021/10/16 08:26:30;;;;;;;11.50;2.33;;;10.00;99.90;;;;;;5048810;28;20033;-78
2021/10/16 08:28:56;;;;;;;10.52;2.58;;;10.00;99.90;;;;;;5052426;28;20104;-78
2021/10/16 08:31:22;;;;;;;10.75;2.15;;;10.10;99.90;;;;;;5053468;28;20048;-78
2021/10/16 08:33:47;;;;;;;9.77;1.73;;;10.20;99.90;;;;;;5051608;28;20028;-78
2021/10/16 08:36:13;;;;;;;10.05;1.95;;;10.30;99.90;;;;;;5047437;28;20021;-79
2021/10/16 08:38:40;;;;;;;9.93;2.03;;;10.40;99.90;;;;;;5048977;28;20049;-79
2021/10/16 08:41:08;;;;;;;11.75;2.05;;;10.50;99.90;;;;;;5034032;28;20026;-79
2021/10/16 08:43:34;;;;;;;11.50;1.80;;;10.60;99.90;;;;;;5045123;28;20047;-77
2021/10/16 08:46:01;;;;;;;8.65;2.40;;;10.70;99.90;;;;;;5049171;28;20036;-79
2021/10/16 08:48:27;;;;;;;7.00;2.05;;;10.80;99.90;;;;;;5051305;28;20033;-78
2021/10/16 08:50:53;;;;;;;9.45;2.00;;;10.80;99.90;;;;;;5054339;28;20488;-79
2021/10/16 08:53:19;;;;;;;12.88;2.25;;;10.90;99.90;;;;;;5056522;28;20096;-81
2021/10/16 08:55:51;;;;;;;12.00;2.15;;;11.00;99.90;;;;;;5047460;28;20112;-79
2021/10/16 08:58:17;;;;;;;;;;;11.10;99.90;;;;;;5055072;28;20040;-80
2021/10/16 09:00:52;;;;;;;12.10;2.38;;;11.10;99.90;;;;;;5049815;28;20296;-79
2021/10/16 09:03:30;;;;;;;12.43;2.38;;;11.20;99.90;;;;;;5056476;28;20560;-79
2021/10/16 09:06:02;;;;;;;18.85;2.53;;;11.30;99.90;;;;;;5055687;28;20033;-79
2021/10/16 09:08:34;;;;;;;10.60;1.73;;;11.30;99.90;;;;;;5051144;28;20053;-79
2021/10/16 09:11:16;;;;;;;9.82;2.17;;;11.40;99.90;;;;;;5043761;28;20388;-79
2021/10/16 09:13:44;;;;;;;16.67;3.20;;;11.50;99.90;;;;;;5054657;28;20029;-79
2021/10/16 09:16:26;;;;;;;11.07;1.90;;;11.50;99.90;;;;;;5050117;28;20028;-79
2021/10/16 09:19:13;;;;;;;6.95;1.65;;;11.60;99.90;;;;;;5053774;28;20086;-79
2021/10/16 09:21:46;;;;;;;11.85;2.38;;;11.60;99.90;;;;;;5052783;28;20064;-78
2021/10/16 09:24:11;;;;;;;11.68;1.92;;;11.70;99.90;;;;;;5044153;28;20109;-79
2021/10/16 09:26:39;;;;;;;7.63;1.75;;;11.80;99.90;;;;;;5050052;28;20104;-80
2021/10/16 09:29:07;;;;;;;13.05;2.08;;;11.80;99.90;;;;;;5050921;28;20071;-79
2021/10/16 09:31:36;;;;;;;11.70;2.42;;;11.90;99.90;;;;;;5051372;28;20051;-80
2021/10/16 09:34:02;;;;;;;12.18;2.00;;;11.90;99.90;;;;;;5054382;28;20063;-80
2021/10/16 09:36:30;;;;;;;13.05;2.35;;;11.80;99.90;;;;;;5053999;28;20082;-80
2021/10/16 09:38:57;;;;;;;10.80;2.13;;;11.90;99.90;;;;;;5053037;28;20033;-80
2021/10/16 09:41:29;;;;;;;16.92;1.83;;;11.90;99.90;;;;;;5050721;28;20027;-80
2021/10/16 09:43:56;;;;;;;8.52;1.63;;;12.00;99.90;;;;;;5052956;28;20492;-80
2021/10/16 09:46:22;;;;;;;10.68;2.33;;;12.00;99.90;;;;;;5050814;28;20029;-80
2021/10/16 09:48:48;;;;;;;11.95;2.15;;;12.10;99.90;;;;;;5052463;28;20481;-80
2021/10/16 09:51:15;;;;;;;15.32;1.80;;;12.10;99.90;;;;;;5052087;28;20051;-80
2021/10/16 09:53:45;;;;;;;12.88;2.15;;;12.20;99.90;;;;;;5050217;28;20032;-80
2021/10/16 09:56:12;;;;;;;11.32;2.60;;;12.20;99.90;;;;;;5051956;28;20032;-80
2021/10/16 09:58:37;;;;;;;8.88;2.38;;;12.30;99.90;;;;;;5052335;28;20198;-80
2021/10/16 10:01:03;;;;;;;13.82;2.42;;;12.40;99.90;;;;;;5051604;28;20090;-80
2021/10/16 10:03:32;;;;;;;12.45;2.15;;;12.40;99.90;;;;;;5042295;28;20025;-80
2021/10/16 10:05:58;;;;;;;12.43;2.50;;;12.40;99.90;;;;;;5048810;28;20107;-80
2021/10/16 10:08:24;;;;;;;10.55;2.65;;;12.50;99.90;;;;;;5050938;28;20440;-80
2021/10/16 10:10:51;;;;;;;10.48;1.80;;;12.50;99.90;;;;;;5052127;28;20029;-80
2021/10/16 10:13:17;;;;;;;11.35;2.80;;;12.50;99.90;;;;;;5052471;28;20043;-80
2021/10/16 10:15:43;;;;;;;13.98;2.60;;;12.50;99.90;;;;;;5052256;28;20051;-80
2021/10/16 10:20:57;;;;;;;13.40;2.58;;;12.60;99.90;;;;;;5047685;28;20075;-80
2021/10/16 10:23:24;;;;;;;12.10;2.50;;;12.60;99.90;;;;;;5057019;28;20033;-80
2021/10/16 10:25:49;;;;;;;11.32;2.60;;;12.80;99.90;;;;;;5056305;28;20052;-80
2021/10/16 10:28:15;;;;;;;15.43;3.08;;;12.80;99.90;;;;;;5050323;28;20079;-80
2021/10/16 10:30:45;;;;;;;11.80;2.17;;;12.80;99.80;;;;;;5050644;28;20033;-80
2021/10/16 10:33:20;;;;;;;11.73;2.10;;;12.80;99.60;;;;;;5054787;28;20060;-80
2021/10/16 10:36:17;;;;;;;7.32;2.00;;;12.80;99.40;;;;;;5051303;28;20028;-80
2021/10/16 10:38:43;;;;;;;10.32;2.30;;;12.80;99.50;;;;;;5051693;28;20133;-80
2021/10/16 10:41:24;;;;;;;16.08;2.97;;;12.90;99.30;;;;;;5050217;28;20096;-80
2021/10/16 10:43:53;;;;;;;11.30;2.22;;;13.00;99.20;;;;;;5052018;28;20074;-79
2021/10/16 10:46:30;;;;;;;12.77;2.80;;;13.00;99.00;;;;;;5053070;28;20128;-80
2021/10/16 10:49:09;;;;;;;9.55;2.40;;;13.10;98.90;;;;;;5053610;28;20056;-79
2021/10/16 10:51:37;;;;;;;12.88;2.95;;;13.10;98.80;;;;;;5053125;28;20112;-79
2021/10/16 10:54:17;;;;;;;10.30;2.55;;;13.20;98.30;;;;;;5053165;28;20071;-79
2021/10/16 10:56:47;;;;;;;10.00;3.03;;;13.10;98.10;;;;;;5049003;28;20039;-80
2021/10/16 10:59:17;;;;;;;13.23;2.13;;;13.10;98.10;;;;;;5054098;28;20060;-81
2021/10/16 11:01:45;;;;;;;12.27;2.53;;;13.00;97.80;;;;;;5052872;28;20055;-80
2021/10/16 11:04:30;;;;;;;13.93;2.70;;;13.10;97.70;;;;;;5049419;28;20029;-80
2021/10/16 11:07:01;;;;;;;8.07;2.20;;;13.10;97.70;;;;;;5052977;28;20041;-80
2021/10/16 11:09:27;;;;;;;13.30;2.50;;;13.20;97.60;;;;;;5045260;28;20068;-80
2021/10/16 11:11:53;;;;;;;9.00;1.92;;;13.30;97.50;;;;;;5052725;28;20451;-81
2021/10/16 11:14:18;;;;;;;11.18;2.17;;;13.30;97.10;;;;;;5051685;28;20423;-80
2021/10/16 11:17:01;;;;;;;11.65;2.40;;;13.40;96.70;;;;;;5047409;28;20036;-80
2021/10/16 11:19:44;;;;;;;11.48;2.40;;;13.40;96.90;;;;;;5053785;28;20037;-81
2021/10/16 11:22:09;;;;;;;11.98;2.10;;;13.50;96.90;;;;;;5050329;28;20079;-80
2021/10/16 11:24:36;;;;;;;7.10;1.60;;;13.50;96.70;;;;;;5042737;28;20033;-81
2021/10/16 11:27:02;;;;;;;8.60;2.08;;;13.50;96.10;;;;;;5052696;28;20055;-81
2021/10/16 11:29:32;;;;;;;13.30;2.33;;;13.60;96.10;;;;;;5051955;28;20029;-81
2021/10/16 11:32:21;;;;;;;9.50;1.75;;;13.70;96.00;;;;;;5051701;28;20036;-77
2021/10/16 11:35:02;;;;;;;10.95;2.50;;;13.80;96.10;;;;;;5053973;28;20060;-79
2021/10/16 11:37:49;;;;;;;12.32;2.10;;;13.90;95.80;;;;;;5051400;28;20104;-78
2021/10/16 11:40:26;;;;;;;10.82;1.63;;;14.10;95.50;;;;;;5051311;28;20048;-78
2021/10/16 11:42:56;;;;;;;12.57;1.75;;;14.20;95.10;;;;;;5064545;28;20516;-78
2021/10/16 11:45:31;;;;;;;7.55;1.52;;;14.20;95.00;;;;;;5052738;28;20492;-79
2021/10/16 11:47:59;;;;;;;12.38;1.52;;;14.30;94.80;;;;;;5050902;28;20105;-79
2021/10/16 11:50:27;;;;;;;12.02;1.50;;;14.40;94.50;;;;;;5052482;28;20096;-78
2021/10/16 11:53:19;;;;;;;6.38;1.17;;;14.50;94.10;;;;;;5055705;28;20141;-79
2021/10/16 11:55:54;;;;;;;13.85;2.22;;;14.60;93.90;;;;;;5038021;28;20052;-79
2021/10/16 11:58:24;;;;;;;8.82;1.55;;;14.70;93.70;;;;;;5033639;28;20528;-79
2021/10/16 12:00:51;;;;;;;8.73;2.15;;;14.80;93.10;;;;;;5049446;28;20045;-79
2021/10/16 12:03:24;;;;;;;9.00;1.25;;;14.80;92.80;;;;;;5050818;28;20021;-79
2021/10/16 12:05:55;;;;;;;7.38;1.40;;;14.80;92.30;;;;;;5053177;28;20048;-78
2021/10/16 12:08:25;;;;;;;8.63;1.73;;;14.80;91.90;;;;;;5053200;28;20033;-78
2021/10/16 12:11:17;;;;;;;9.00;1.10;;;14.80;91.90;;;;;;5052703;28;20389;-78
2021/10/16 12:13:53;;;;;;;8.40;1.58;;;14.90;91.80;;;;;;5054897;28;20036;-79
2021/10/16 12:16:21;;;;;;;9.57;1.83;;;15.00;91.20;;;;;;5049817;28;20039;-78
2021/10/16 12:18:54;;;;;;;12.48;1.38;;;15.00;90.90;;;;;;5051998;28;20029;-78
2021/10/16 12:21:35;;;;;;;9.38;1.65;;;15.00;90.50;;;;;;5051876;28;20032;-79
2021/10/16 12:24:08;;;;;;;11.35;2.25;;;15.00;90.50;;;;;;5054468;28;20025;-79
2021/10/16 12:26:35;;;;;;;7.70;1.20;;;15.00;90.60;;;;;;5050907;28;20033;-78
2021/10/16 12:29:06;;;;;;;8.05;0.90;;;15.00;90.10;;;;;;5050215;28;20024;-80
2021/10/16 12:31:49;;;;;;;10.93;1.38;;;15.00;89.30;;;;;;5054548;28;20041;-79
2021/10/16 12:34:29;;;;;;;6.35;0.93;;;15.00;89.40;;;;;;5050240;28;20113;-80
2021/10/16 12:36:55;;;;;;;7.75;0.93;;;15.00;90.00;;;;;;5050830;28;20083;-79
2021/10/16 12:39:25;;;;;;;5.30;1.00;;;15.00;89.50;;;;;;5067345;28;20095;-80
2021/10/16 12:41:51;;;;;;;7.13;1.25;;;15.20;88.50;;;;;;5055093;28;20029;-79
2021/10/16 12:44:30;;;;;;;5.38;1.25;;;15.30;88.20;;;;;;5053109;28;20116;-79
2021/10/16 12:47:10;;;;;;;7.55;1.13;;;15.30;88.00;;;;;;5052731;28;20021;-79
2021/10/16 12:49:39;;;;;;;6.72;1.20;;;15.30;87.20;;;;;;5052949;28;20124;-80
2021/10/16 12:52:28;;;;;;;8.45;1.10;;;15.40;86.40;;;;;;5050967;28;20033;-80